sensor_id;sensor_type;location;lat;lon;timestamp;P1;durP1;ratioP1;P2;durP2;ratioP2
72354;SDS011;60314;55.040;73.076;2022-08-21T00:02:14;10.60;;;5.20;;
72354;SDS011;60314;55.040;73.076;2022-08-21T00:04:47;8.85;;;4.90;;
72354;SDS011;60314;55.040;73.076;2022-08-21T00:07:25;9.65;;;5.18;;
72354;SDS011;60314;55.040;73.076;2022-08-21T00:09:53;9.90;;;5.25;;
72354;SDS011;60314;55.040;73.076;2022-08-21T00:12:20;11.45;;;5.10;;
72354;SDS011;60314;55.040;73.076;2022-08-21T00:14:47;12.32;;;5.88;;
72354;SDS011;60314;55.040;73.076;2022-08-21T00:17:14;8.68;;;4.97;;
72354;SDS011;60314;55.040;73.076;2022-08-21T00:19:41;7.82;;;4.88;;
72354;SDS011;60314;55.040;73.076;2022-08-21T00:22:07;12.13;;;5.35;;
72354;SDS011;60314;55.040;73.076;2022-08-21T00:24:34;12.25;;;5.05;;
72354;SDS011;60314;55.040;73.076;2022-08-21T00:27:01;8.95;;;5.40;;
72354;SDS011;60314;55.040;73.076;2022-08-21T00:29:27;11.93;;;5.05;;
72354;SDS011;60314;55.040;73.076;2022-08-21T00:31:54;9.57;;;4.80;;
72354;SDS011;60314;55.040;73.076;2022-08-21T00:34:21;10.60;;;5.15;;
72354;SDS011;60314;55.040;73.076;2022-08-21T00:36:47;14.27;;;5.45;;
72354;SDS011;60314;55.040;73.076;2022-08-21T00:39:14;12.50;;;5.53;;
72354;SDS011;60314;55.040;73.076;2022-08-21T00:41:41;9.27;;;5.05;;
72354;SDS011;60314;55.040;73.076;2022-08-21T00:44:09;12.43;;;5.38;;
72354;SDS011;60314;55.040;73.076;2022-08-21T00:46:39;8.85;;;4.82;;
72354;SDS011;60314;55.040;73.076;2022-08-21T00:49:07;10.32;;;4.82;;
72354;SDS011;60314;55.040;73.076;2022-08-21T00:54:19;10.98;;;5.47;;
72354;SDS011;60314;55.040;73.076;2022-08-21T00:56:52;9.93;;;5.50;;
72354;SDS011;60314;55.040;73.076;2022-08-21T00:59:21;14.52;;;5.38;;
72354;SDS011;60314;55.040;73.076;2022-08-21T01:01:49;9.38;;;5.70;;
72354;SDS011;60314;55.040;73.076;2022-08-21T01:04:16;9.30;;;5.50;;
72354;SDS011;60314;55.040;73.076;2022-08-21T01:06:43;15.40;;;5.72;;
72354;SDS011;60314;55.040;73.076;2022-08-21T01:09:10;10.60;;;6.35;;
72354;SDS011;60314;55.040;73.076;2022-08-21T01:11:37;11.30;;;5.95;;
72354;SDS011;60314;55.040;73.076;2022-08-21T01:14:03;15.98;;;5.85;;
72354;SDS011;60314;55.040;73.076;2022-08-21T01:16:31;14.52;;;6.50;;
72354;SDS011;60314;55.040;73.076;2022-08-21T01:18:59;13.00;;;6.63;;
72354;SDS011;60314;55.040;73.076;2022-08-21T01:21:26;13.13;;;6.57;;
72354;SDS011;60314;55.040;73.076;2022-08-21T01:23:54;11.65;;;6.22;;
72354;SDS011;60314;55.040;73.076;2022-08-21T01:26:23;10.75;;;6.07;;
72354;SDS011;60314;55.040;73.076;2022-08-21T01:29:07;11.85;;;6.35;;
72354;SDS011;60314;55.040;73.076;2022-08-21T01:31:41;10.50;;;6.25;;
72354;SDS011;60314;55.040;73.076;2022-08-21T01:34:28;13.23;;;6.97;;
72354;SDS011;60314;55.040;73.076;2022-08-21T01:37:05;11.48;;;6.40;;
72354;SDS011;60314;55.040;73.076;2022-08-21T01:42:32;10.55;;;6.25;;
72354;SDS011;60314;55.040;73.076;2022-08-21T01:44:59;15.75;;;6.63;;
72354;SDS011;60314;55.040;73.076;2022-08-21T01:47:31;13.25;;;6.90;;
72354;SDS011;60314;55.040;73.076;2022-08-21T01:49:58;11.35;;;7.07;;
72354;SDS011;60314;55.040;73.076;2022-08-21T01:52:25;13.95;;;6.95;;
72354;SDS011;60314;55.040;73.076;2022-08-21T01:54:52;10.13;;;6.28;;
72354;SDS011;60314;55.040;73.076;2022-08-21T01:57:20;10.57;;;6.00;;
72354;SDS011;60314;55.040;73.076;2022-08-21T01:59:52;10.87;;;6.50;;
72354;SDS011;60314;55.040;73.076;2022-08-21T02:02:19;11.18;;;6.38;;
72354;SDS011;60314;55.040;73.076;2022-08-21T02:04:46;10.77;;;6.07;;
72354;SDS011;60314;55.040;73.076;2022-08-21T02:07:12;10.07;;;6.07;;
72354;SDS011;60314;55.040;73.076;2022-08-21T02:09:39;12.93;;;5.78;;
72354;SDS011;60314;55.040;73.076;2022-08-21T02:12:08;11.85;;;6.28;;
72354;SDS011;60314;55.040;73.076;2022-08-21T02:14:35;8.88;;;6.18;;
72354;SDS011;60314;55.040;73.076;2022-08-21T02:17:02;10.68;;;6.30;;
72354;SDS011;60314;55.040;73.076;2022-08-21T02:19:29;8.40;;;5.75;;
72354;SDS011;60314;55.040;73.076;2022-08-21T02:21:56;10.40;;;6.57;;
72354;SDS011;60314;55.040;73.076;2022-08-21T02:24:22;11.60;;;6.90;;
72354;SDS011;60314;55.040;73.076;2022-08-21T02:26:49;14.57;;;7.68;;
72354;SDS011;60314;55.040;73.076;2022-08-21T02:29:15;12.80;;;7.28;;
72354;SDS011;60314;55.040;73.076;2022-08-21T02:31:42;13.77;;;6.47;;
72354;SDS011;60314;55.040;73.076;2022-08-21T02:34:08;10.80;;;5.88;;
72354;SDS011;60314;55.040;73.076;2022-08-21T02:36:35;12.65;;;6.65;;
72354;SDS011;60314;55.040;73.076;2022-08-21T02:39:01;9.25;;;5.60;;
72354;SDS011;60314;55.040;73.076;2022-08-21T02:41:28;10.75;;;6.47;;
72354;SDS011;60314;55.040;73.076;2022-08-21T02:43:55;10.73;;;6.55;;
72354;SDS011;60314;55.040;73.076;2022-08-21T02:46:31;9.70;;;6.32;;
72354;SDS011;60314;55.040;73.076;2022-08-21T02:48:58;11.10;;;7.00;;
72354;SDS011;60314;55.040;73.076;2022-08-21T02:51:24;10.40;;;6.20;;
72354;SDS011;60314;55.040;73.076;2022-08-21T02:53:51;12.52;;;6.28;;
72354;SDS011;60314;55.040;73.076;2022-08-21T02:56:19;15.23;;;6.90;;
72354;SDS011;60314;55.040;73.076;2022-08-21T02:58:48;15.32;;;8.10;;
72354;SDS011;60314;55.040;73.076;2022-08-21T03:01:20;11.95;;;7.40;;
72354;SDS011;60314;55.040;73.076;2022-08-21T03:03:47;10.95;;;6.78;;
72354;SDS011;60314;55.040;73.076;2022-08-21T03:06:16;12.70;;;7.65;;
72354;SDS011;60314;55.040;73.076;2022-08-21T03:08:43;13.38;;;8.23;;
72354;SDS011;60314;55.040;73.076;2022-08-21T03:11:11;14.77;;;7.90;;
72354;SDS011;60314;55.040;73.076;2022-08-21T03:13:38;17.88;;;8.95;;
72354;SDS011;60314;55.040;73.076;2022-08-21T03:16:05;15.50;;;8.90;;
72354;SDS011;60314;55.040;73.076;2022-08-21T03:18:33;15.32;;;8.65;;
72354;SDS011;60314;55.040;73.076;2022-08-21T03:21:00;15.77;;;9.07;;
72354;SDS011;60314;55.040;73.076;2022-08-21T03:23:26;16.73;;;9.40;;
72354;SDS011;60314;55.040;73.076;2022-08-21T03:25:53;20.23;;;9.35;;
72354;SDS011;60314;55.040;73.076;2022-08-21T03:28:20;21.17;;;9.43;;
72354;SDS011;60314;55.040;73.076;2022-08-21T03:30:48;18.88;;;10.02;;
72354;SDS011;60314;55.040;73.076;2022-08-21T03:33:17;17.83;;;10.45;;
72354;SDS011;60314;55.040;73.076;2022-08-21T03:35:45;16.70;;;9.77;;
72354;SDS011;60314;55.040;73.076;2022-08-21T03:38:15;15.68;;;8.40;;
72354;SDS011;60314;55.040;73.076;2022-08-21T03:40:42;16.88;;;9.38;;
72354;SDS011;60314;55.040;73.076;2022-08-21T03:43:09;18.25;;;9.48;;
72354;SDS011;60314;55.040;73.076;2022-08-21T03:45:36;16.48;;;9.57;;
72354;SDS011;60314;55.040;73.076;2022-08-21T03:48:03;15.40;;;8.70;;
72354;SDS011;60314;55.040;73.076;2022-08-21T03:50:32;15.13;;;8.43;;
72354;SDS011;60314;55.040;73.076;2022-08-21T03:53:01;16.75;;;8.93;;
72354;SDS011;60314;55.040;73.076;2022-08-21T03:55:27;16.63;;;9.43;;
72354;SDS011;60314;55.040;73.076;2022-08-21T03:57:55;15.70;;;9.25;;
72354;SDS011;60314;55.040;73.076;2022-08-21T04:00:22;19.05;;;9.90;;
72354;SDS011;60314;55.040;73.076;2022-08-21T04:02:49;17.50;;;9.05;;
72354;SDS011;60314;55.040;73.076;2022-08-21T04:05:17;18.45;;;8.93;;
72354;SDS011;60314;55.040;73.076;2022-08-21T04:07:57;16.27;;;8.82;;
72354;SDS011;60314;55.040;73.076;2022-08-21T04:10:25;13.30;;;8.55;;
72354;SDS011;60314;55.040;73.076;2022-08-21T04:13:01;18.50;;;9.35;;
72354;SDS011;60314;55.040;73.076;2022-08-21T04:15:37;14.35;;;8.40;;
72354;SDS011;60314;55.040;73.076;2022-08-21T04:18:04;15.25;;;8.80;;
72354;SDS011;60314;55.040;73.076;2022-08-21T04:20:31;15.52;;;7.18;;
72354;SDS011;60314;55.040;73.076;2022-08-21T04:22:57;16.52;;;7.45;;
72354;SDS011;60314;55.040;73.076;2022-08-21T04:25:24;10.40;;;6.13;;
72354;SDS011;60314;55.040;73.076;2022-08-21T04:27:54;11.10;;;4.97;;
72354;SDS011;60314;55.040;73.076;2022-08-21T04:30:32;8.60;;;5.22;;
72354;SDS011;60314;55.040;73.076;2022-08-21T04:32:58;9.35;;;5.30;;
72354;SDS011;60314;55.040;73.076;2022-08-21T04:35:26;10.00;;;5.38;;
72354;SDS011;60314;55.040;73.076;2022-08-21T04:37:53;8.50;;;4.55;;
72354;SDS011;60314;55.040;73.076;2022-08-21T04:40:21;9.40;;;5.53;;
72354;SDS011;60314;55.040;73.076;2022-08-21T04:42:53;12.43;;;5.18;;
72354;SDS011;60314;55.040;73.076;2022-08-21T04:45:31;8.27;;;4.28;;
72354;SDS011;60314;55.040;73.076;2022-08-21T04:48:03;6.65;;;4.10;;
72354;SDS011;60314;55.040;73.076;2022-08-21T04:50:37;8.10;;;4.22;;
72354;SDS011;60314;55.040;73.076;2022-08-21T04:55:59;5.53;;;3.22;;
72354;SDS011;60314;55.040;73.076;2022-08-21T04:58:30;5.80;;;3.30;;
72354;SDS011;60314;55.040;73.076;2022-08-21T05:01:00;7.10;;;3.28;;
72354;SDS011;60314;55.040;73.076;2022-08-21T05:03:27;5.80;;;3.13;;
72354;SDS011;60314;55.040;73.076;2022-08-21T05:05:57;4.50;;;2.35;;
72354;SDS011;60314;55.040;73.076;2022-08-21T05:08:24;5.82;;;2.10;;
72354;SDS011;60314;55.040;73.076;2022-08-21T05:10:53;4.55;;;2.10;;
72354;SDS011;60314;55.040;73.076;2022-08-21T05:13:20;4.28;;;2.40;;
72354;SDS011;60314;55.040;73.076;2022-08-21T05:15:47;3.97;;;2.30;;
72354;SDS011;60314;55.040;73.076;2022-08-21T05:18:14;4.40;;;2.13;;
72354;SDS011;60314;55.040;73.076;2022-08-21T05:20:41;3.72;;;2.17;;
72354;SDS011;60314;55.040;73.076;2022-08-21T05:23:08;4.25;;;1.83;;
72354;SDS011;60314;55.040;73.076;2022-08-21T05:25:36;3.60;;;1.70;;
72354;SDS011;60314;55.040;73.076;2022-08-21T05:28:03;4.10;;;1.80;;
72354;SDS011;60314;55.040;73.076;2022-08-21T05:30:30;5.47;;;1.70;;
72354;SDS011;60314;55.040;73.076;2022-08-21T05:32:57;4.93;;;1.90;;
72354;SDS011;60314;55.040;73.076;2022-08-21T05:35:25;3.83;;;1.60;;
72354;SDS011;60314;55.040;73.076;2022-08-21T05:37:52;3.60;;;1.55;;
72354;SDS011;60314;55.040;73.076;2022-08-21T05:40:20;3.35;;;1.30;;
72354;SDS011;60314;55.040;73.076;2022-08-21T05:42:47;3.40;;;1.48;;
72354;SDS011;60314;55.040;73.076;2022-08-21T05:45:20;3.92;;;1.48;;
72354;SDS011;60314;55.040;73.076;2022-08-21T05:47:50;2.95;;;1.40;;
72354;SDS011;60314;55.040;73.076;2022-08-21T05:50:22;3.53;;;1.70;;
72354;SDS011;60314;55.040;73.076;2022-08-21T05:52:53;2.70;;;1.30;;
72354;SDS011;60314;55.040;73.076;2022-08-21T05:55:20;2.30;;;0.98;;
72354;SDS011;60314;55.040;73.076;2022-08-21T05:57:46;2.92;;;1.13;;
72354;SDS011;60314;55.040;73.076;2022-08-21T06:00:13;2.13;;;0.93;;
72354;SDS011;60314;55.040;73.076;2022-08-21T06:02:40;2.22;;;0.73;;
72354;SDS011;60314;55.040;73.076;2022-08-21T06:05:07;2.60;;;0.88;;
72354;SDS011;60314;55.040;73.076;2022-08-21T06:07:34;1.38;;;0.52;;
72354;SDS011;60314;55.040;73.076;2022-08-21T06:10:00;2.65;;;0.50;;
72354;SDS011;60314;55.040;73.076;2022-08-21T06:12:28;1.98;;;0.45;;
72354;SDS011;60314;55.040;73.076;2022-08-21T06:14:54;2.60;;;0.50;;
72354;SDS011;60314;55.040;73.076;2022-08-21T06:17:21;2.28;;;0.60;;
72354;SDS011;60314;55.040;73.076;2022-08-21T06:19:50;2.13;;;0.60;;
72354;SDS011;60314;55.040;73.076;2022-08-21T06:22:23;2.22;;;0.70;;
72354;SDS011;60314;55.040;73.076;2022-08-21T06:24:59;1.80;;;0.68;;
72354;SDS011;60314;55.040;73.076;2022-08-21T06:27:26;1.27;;;0.50;;
72354;SDS011;60314;55.040;73.076;2022-08-21T06:29:52;1.45;;;0.47;;
72354;SDS011;60314;55.040;73.076;2022-08-21T06:32:19;1.90;;;0.40;;
72354;SDS011;60314;55.040;73.076;2022-08-21T06:34:45;1.42;;;0.50;;
72354;SDS011;60314;55.040;73.076;2022-08-21T06:37:15;1.67;;;0.50;;
72354;SDS011;60314;55.040;73.076;2022-08-21T06:39:41;1.65;;;0.55;;
72354;SDS011;60314;55.040;73.076;2022-08-21T06:42:13;1.75;;;0.50;;
72354;SDS011;60314;55.040;73.076;2022-08-21T06:44:41;3.45;;;0.93;;
72354;SDS011;60314;55.040;73.076;2022-08-21T06:47:07;1.50;;;0.60;;
72354;SDS011;60314;55.040;73.076;2022-08-21T06:52:10;1.92;;;0.40;;
72354;SDS011;60314;55.040;73.076;2022-08-21T06:54:38;1.40;;;0.40;;
72354;SDS011;60314;55.040;73.076;2022-08-21T06:57:05;1.00;;;0.35;;
72354;SDS011;60314;55.040;73.076;2022-08-21T06:59:32;1.50;;;0.40;;
72354;SDS011;60314;55.040;73.076;2022-08-21T07:01:59;1.73;;;0.40;;
72354;SDS011;60314;55.040;73.076;2022-08-21T07:04:26;1.42;;;0.50;;
72354;SDS011;60314;55.040;73.076;2022-08-21T07:06:52;3.00;;;0.70;;
72354;SDS011;60314;55.040;73.076;2022-08-21T07:09:19;2.28;;;0.50;;
72354;SDS011;60314;55.040;73.076;2022-08-21T07:11:46;5.05;;;0.70;;
72354;SDS011;60314;55.040;73.076;2022-08-21T07:14:17;1.40;;;0.60;;
72354;SDS011;60314;55.040;73.076;2022-08-21T07:16:43;2.38;;;0.50;;
72354;SDS011;60314;55.040;73.076;2022-08-21T07:19:15;1.70;;;0.50;;
72354;SDS011;60314;55.040;73.076;2022-08-21T07:21:41;2.35;;;0.77;;
72354;SDS011;60314;55.040;73.076;2022-08-21T07:24:08;1.90;;;0.68;;
72354;SDS011;60314;55.040;73.076;2022-08-21T07:26:35;3.25;;;0.90;;
72354;SDS011;60314;55.040;73.076;2022-08-21T07:29:03;3.10;;;0.52;;
72354;SDS011;60314;55.040;73.076;2022-08-21T07:31:29;3.35;;;0.90;;
72354;SDS011;60314;55.040;73.076;2022-08-21T07:33:56;2.83;;;0.70;;
72354;SDS011;60314;55.040;73.076;2022-08-21T07:36:23;1.80;;;0.60;;
72354;SDS011;60314;55.040;73.076;2022-08-21T07:38:52;3.60;;;0.70;;
72354;SDS011;60314;55.040;73.076;2022-08-21T07:41:26;1.15;;;0.47;;
72354;SDS011;60314;55.040;73.076;2022-08-21T07:43:58;1.13;;;0.50;;
72354;SDS011;60314;55.040;73.076;2022-08-21T07:46:24;1.02;;;0.40;;
72354;SDS011;60314;55.040;73.076;2022-08-21T07:48:52;1.77;;;0.60;;
72354;SDS011;60314;55.040;73.076;2022-08-21T07:51:20;2.10;;;0.65;;
72354;SDS011;60314;55.040;73.076;2022-08-21T07:53:50;2.80;;;0.85;;
72354;SDS011;60314;55.040;73.076;2022-08-21T07:56:18;2.38;;;0.77;;
72354;SDS011;60314;55.040;73.076;2022-08-21T07:58:45;6.88;;;1.10;;
72354;SDS011;60314;55.040;73.076;2022-08-21T08:01:12;3.53;;;1.00;;
72354;SDS011;60314;55.040;73.076;2022-08-21T08:03:39;2.30;;;0.90;;
72354;SDS011;60314;55.040;73.076;2022-08-21T08:06:07;4.50;;;1.20;;
72354;SDS011;60314;55.040;73.076;2022-08-21T08:08:41;2.83;;;1.00;;
72354;SDS011;60314;55.040;73.076;2022-08-21T08:11:09;3.17;;;1.00;;
72354;SDS011;60314;55.040;73.076;2022-08-21T08:13:40;4.43;;;1.00;;
72354;SDS011;60314;55.040;73.076;2022-08-21T08:16:08;4.20;;;1.40;;
72354;SDS011;60314;55.040;73.076;2022-08-21T08:18:34;3.38;;;1.10;;
72354;SDS011;60314;55.040;73.076;2022-08-21T08:21:01;3.25;;;1.38;;
72354;SDS011;60314;55.040;73.076;2022-08-21T08:23:28;3.80;;;1.40;;
72354;SDS011;60314;55.040;73.076;2022-08-21T08:25:56;3.45;;;1.23;;
72354;SDS011;60314;55.040;73.076;2022-08-21T08:28:23;3.17;;;1.35;;
72354;SDS011;60314;55.040;73.076;2022-08-21T08:30:50;3.15;;;1.17;;
72354;SDS011;60314;55.040;73.076;2022-08-21T08:33:17;3.50;;;1.30;;
72354;SDS011;60314;55.040;73.076;2022-08-21T08:35:44;3.38;;;1.17;;
72354;SDS011;60314;55.040;73.076;2022-08-21T08:38:13;3.28;;;1.30;;
72354;SDS011;60314;55.040;73.076;2022-08-21T08:43:42;3.25;;;1.30;;
72354;SDS011;60314;55.040;73.076;2022-08-21T08:46:15;3.95;;;1.20;;
72354;SDS011;60314;55.040;73.076;2022-08-21T08:51:48;2.65;;;1.25;;
72354;SDS011;60314;55.040;73.076;2022-08-21T08:54:25;3.53;;;1.42;;
72354;SDS011;60314;55.040;73.076;2022-08-21T08:56:58;3.15;;;1.27;;
72354;SDS011;60314;55.040;73.076;2022-08-21T08:59:27;4.25;;;1.20;;
72354;SDS011;60314;55.040;73.076;2022-08-21T09:02:16;4.22;;;1.15;;
72354;SDS011;60314;55.040;73.076;2022-08-21T09:04:45;3.67;;;0.82;;
72354;SDS011;60314;55.040;73.076;2022-08-21T09:12:45;3.58;;;1.17;;
72354;SDS011;60314;55.040;73.076;2022-08-21T09:15:41;3.92;;;1.40;;
72354;SDS011;60314;55.040;73.076;2022-08-21T09:21:09;3.22;;;1.20;;
72354;SDS011;60314;55.040;73.076;2022-08-21T09:23:51;3.97;;;1.13;;
72354;SDS011;60314;55.040;73.076;2022-08-21T09:29:27;5.93;;;1.20;;
72354;SDS011;60314;55.040;73.076;2022-08-21T09:31:59;2.72;;;1.05;;
72354;SDS011;60314;55.040;73.076;2022-08-21T09:34:26;2.60;;;1.10;;
72354;SDS011;60314;55.040;73.076;2022-08-21T09:36:55;3.95;;;1.20;;
72354;SDS011;60314;55.040;73.076;2022-08-21T09:39:27;3.63;;;1.50;;
72354;SDS011;60314;55.040;73.076;2022-08-21T09:41:59;4.88;;;1.20;;
72354;SDS011;60314;55.040;73.076;2022-08-21T09:44:29;3.65;;;1.15;;
72354;SDS011;60314;55.040;73.076;2022-08-21T09:46:57;2.97;;;1.20;;
72354;SDS011;60314;55.040;73.076;2022-08-21T09:49:31;5.78;;;1.30;;
72354;SDS011;60314;55.040;73.076;2022-08-21T09:52:00;2.80;;;1.13;;
72354;SDS011;60314;55.040;73.076;2022-08-21T09:54:38;5.10;;;1.20;;
72354;SDS011;60314;55.040;73.076;2022-08-21T10:00:28;4.82;;;1.15;;
72354;SDS011;60314;55.040;73.076;2022-08-21T10:03:16;6.03;;;1.10;;
72354;SDS011;60314;55.040;73.076;2022-08-21T10:08:26;2.72;;;1.20;;
72354;SDS011;60314;55.040;73.076;2022-08-21T10:10:55;3.72;;;1.10;;
72354;SDS011;60314;55.040;73.076;2022-08-21T10:13:37;4.93;;;1.20;;
72354;SDS011;60314;55.040;73.076;2022-08-21T10:24:45;6.40;;;1.70;;
72354;SDS011;60314;55.040;73.076;2022-08-21T10:27:44;4.13;;;1.63;;
72354;SDS011;60314;55.040;73.076;2022-08-21T10:33:24;4.28;;;1.30;;
72354;SDS011;60314;55.040;73.076;2022-08-21T10:39:12;3.70;;;1.42;;
72354;SDS011;60314;55.040;73.076;2022-08-21T10:47:13;6.55;;;1.42;;
72354;SDS011;60314;55.040;73.076;2022-08-21T10:50:10;7.20;;;1.52;;
72354;SDS011;60314;55.040;73.076;2022-08-21T10:55:14;5.32;;;1.30;;
72354;SDS011;60314;55.040;73.076;2022-08-21T10:57:51;4.82;;;1.33;;
72354;SDS011;60314;55.040;73.076;2022-08-21T11:00:23;6.22;;;1.60;;
72354;SDS011;60314;55.040;73.076;2022-08-21T11:03:00;4.97;;;1.20;;
72354;SDS011;60314;55.040;73.076;2022-08-21T11:05:35;3.45;;;1.40;;
72354;SDS011;60314;55.040;73.076;2022-08-21T11:08:12;4.47;;;1.33;;
72354;SDS011;60314;55.040;73.076;2022-08-21T11:15:59;6.55;;;1.40;;
72354;SDS011;60314;55.040;73.076;2022-08-21T11:19:08;5.78;;;1.45;;
72354;SDS011;60314;55.040;73.076;2022-08-21T11:29:47;5.53;;;1.02;;
72354;SDS011;60314;55.040;73.076;2022-08-21T11:32:27;2.95;;;1.38;;
72354;SDS011;60314;55.040;73.076;2022-08-21T11:43:45;6.03;;;1.33;;
72354;SDS011;60314;55.040;73.076;2022-08-21T11:46:25;3.75;;;1.40;;
72354;SDS011;60314;55.040;73.076;2022-08-21T11:54:16;4.35;;;1.35;;
72354;SDS011;60314;55.040;73.076;2022-08-21T12:00:01;3.63;;;1.17;;
72354;SDS011;60314;55.040;73.076;2022-08-21T12:02:45;4.80;;;1.30;;
72354;SDS011;60314;55.040;73.076;2022-08-21T12:05:38;5.57;;;1.20;;
72354;SDS011;60314;55.040;73.076;2022-08-21T12:08:34;4.97;;;1.48;;
72354;SDS011;60314;55.040;73.076;2022-08-21T12:11:05;3.17;;;1.02;;
72354;SDS011;60314;55.040;73.076;2022-08-21T12:13:34;4.90;;;1.30;;
72354;SDS011;60314;55.040;73.076;2022-08-21T12:16:07;3.17;;;1.17;;
72354;SDS011;60314;55.040;73.076;2022-08-21T12:18:48;3.25;;;1.02;;
72354;SDS011;60314;55.040;73.076;2022-08-21T12:21:22;4.63;;;1.10;;
72354;SDS011;60314;55.040;73.076;2022-08-21T12:24:15;5.22;;;1.35;;
72354;SDS011;60314;55.040;73.076;2022-08-21T12:29:29;5.68;;;1.42;;
72354;SDS011;60314;55.040;73.076;2022-08-21T12:32:03;5.57;;;1.40;;
72354;SDS011;60314;55.040;73.076;2022-08-21T12:39:57;6.40;;;1.25;;
72354;SDS011;60314;55.040;73.076;2022-08-21T12:42:38;3.75;;;1.25;;
72354;SDS011;60314;55.040;73.076;2022-08-21T12:45:17;6.82;;;1.13;;
72354;SDS011;60314;55.040;73.076;2022-08-21T12:47:51;5.22;;;1.40;;
72354;SDS011;60314;55.040;73.076;2022-08-21T12:50:41;4.18;;;1.10;;
72354;SDS011;60314;55.040;73.076;2022-08-21T12:53:14;6.03;;;1.60;;
72354;SDS011;60314;55.040;73.076;2022-08-21T12:55:49;4.38;;;1.00;;
72354;SDS011;60314;55.040;73.076;2022-08-21T12:58:19;4.60;;;1.20;;
72354;SDS011;60314;55.040;73.076;2022-08-21T13:00:59;3.00;;;1.30;;
72354;SDS011;60314;55.040;73.076;2022-08-21T13:03:35;5.47;;;1.73;;
72354;SDS011;60314;55.040;73.076;2022-08-21T13:06:03;6.03;;;1.55;;
72354;SDS011;60314;55.040;73.076;2022-08-21T13:08:36;6.72;;;1.55;;
72354;SDS011;60314;55.040;73.076;2022-08-21T13:11:03;5.45;;;1.30;;
72354;SDS011;60314;55.040;73.076;2022-08-21T13:13:32;5.68;;;1.60;;
72354;SDS011;60314;55.040;73.076;2022-08-21T13:16:00;4.82;;;1.40;;
72354;SDS011;60314;55.040;73.076;2022-08-21T13:18:31;6.38;;;1.63;;
72354;SDS011;60314;55.040;73.076;2022-08-21T13:21:03;6.00;;;1.73;;
72354;SDS011;60314;55.040;73.076;2022-08-21T13:23:32;5.32;;;1.52;;
72354;SDS011;60314;55.040;73.076;2022-08-21T13:25:58;6.15;;;1.20;;
72354;SDS011;60314;55.040;73.076;2022-08-21T13:28:34;8.70;;;1.30;;
72354;SDS011;60314;55.040;73.076;2022-08-21T13:31:05;4.78;;;1.48;;
72354;SDS011;60314;55.040;73.076;2022-08-21T13:38:34;5.45;;;1.30;;
72354;SDS011;60314;55.040;73.076;2022-08-21T13:41:04;4.35;;;1.33;;
72354;SDS011;60314;55.040;73.076;2022-08-21T13:43:37;3.45;;;1.13;;
72354;SDS011;60314;55.040;73.076;2022-08-21T13:46:07;6.28;;;1.38;;
72354;SDS011;60314;55.040;73.076;2022-08-21T13:48:38;6.63;;;1.58;;
72354;SDS011;60314;55.040;73.076;2022-08-21T13:51:05;4.85;;;1.30;;
72354;SDS011;60314;55.040;73.076;2022-08-21T13:56:00;3.05;;;1.30;;
72354;SDS011;60314;55.040;73.076;2022-08-21T13:58:31;6.25;;;1.67;;
72354;SDS011;60314;55.040;73.076;2022-08-21T14:00:58;7.05;;;1.70;;
72354;SDS011;60314;55.040;73.076;2022-08-21T14:03:47;4.82;;;1.20;;
72354;SDS011;60314;55.040;73.076;2022-08-21T14:06:33;5.75;;;1.52;;
72354;SDS011;60314;55.040;73.076;2022-08-21T14:09:08;4.40;;;1.20;;
72354;SDS011;60314;55.040;73.076;2022-08-21T14:11:41;5.88;;;1.70;;
72354;SDS011;60314;55.040;73.076;2022-08-21T14:17:04;4.15;;;1.30;;
72354;SDS011;60314;55.040;73.076;2022-08-21T14:19:43;4.55;;;1.42;;
72354;SDS011;60314;55.040;73.076;2022-08-21T14:22:21;5.97;;;1.48;;
72354;SDS011;60314;55.040;73.076;2022-08-21T14:25:04;5.50;;;1.85;;
72354;SDS011;60314;55.040;73.076;2022-08-21T14:30:28;6.85;;;1.73;;
72354;SDS011;60314;55.040;73.076;2022-08-21T14:33:00;6.10;;;1.70;;
72354;SDS011;60314;55.040;73.076;2022-08-21T14:35:27;10.05;;;1.90;;
72354;SDS011;60314;55.040;73.076;2022-08-21T14:37:54;6.40;;;1.90;;
72354;SDS011;60314;55.040;73.076;2022-08-21T14:40:22;7.97;;;1.90;;
72354;SDS011;60314;55.040;73.076;2022-08-21T14:42:54;3.83;;;1.67;;
72354;SDS011;60314;55.040;73.076;2022-08-21T14:45:28;6.07;;;2.00;;
72354;SDS011;60314;55.040;73.076;2022-08-21T14:47:56;5.38;;;1.60;;
72354;SDS011;60314;55.040;73.076;2022-08-21T14:50:24;4.82;;;1.48;;
72354;SDS011;60314;55.040;73.076;2022-08-21T14:52:51;4.68;;;1.70;;
72354;SDS011;60314;55.040;73.076;2022-08-21T14:55:19;5.00;;;1.60;;
72354;SDS011;60314;55.040;73.076;2022-08-21T14:57:52;7.13;;;1.40;;
72354;SDS011;60314;55.040;73.076;2022-08-21T15:00:21;4.57;;;1.50;;
72354;SDS011;60314;55.040;73.076;2022-08-21T15:02:49;6.05;;;1.70;;
72354;SDS011;60314;55.040;73.076;2022-08-21T15:05:15;5.60;;;1.50;;
72354;SDS011;60314;55.040;73.076;2022-08-21T15:07:43;5.43;;;1.60;;
72354;SDS011;60314;55.040;73.076;2022-08-21T15:10:10;4.90;;;1.75;;
72354;SDS011;60314;55.040;73.076;2022-08-21T15:12:37;5.22;;;1.33;;
72354;SDS011;60314;55.040;73.076;2022-08-21T15:15:04;5.50;;;1.25;;
72354;SDS011;60314;55.040;73.076;2022-08-21T15:17:32;11.55;;;1.40;;
72354;SDS011;60314;55.040;73.076;2022-08-21T15:19:58;6.25;;;1.63;;
72354;SDS011;60314;55.040;73.076;2022-08-21T15:22:29;6.72;;;1.63;;
72354;SDS011;60314;55.040;73.076;2022-08-21T15:24:56;5.53;;;1.60;;
72354;SDS011;60314;55.040;73.076;2022-08-21T15:27:27;8.57;;;1.80;;
72354;SDS011;60314;55.040;73.076;2022-08-21T15:29:54;11.82;;;2.05;;
72354;SDS011;60314;55.040;73.076;2022-08-21T15:32:23;7.30;;;1.55;;
72354;SDS011;60314;55.040;73.076;2022-08-21T15:34:53;4.32;;;1.52;;
72354;SDS011;60314;55.040;73.076;2022-08-21T15:37:20;5.45;;;1.65;;
72354;SDS011;60314;55.040;73.076;2022-08-21T15:39:48;5.68;;;1.80;;
72354;SDS011;60314;55.040;73.076;2022-08-21T15:42:16;5.75;;;1.70;;
72354;SDS011;60314;55.040;73.076;2022-08-21T15:44:46;5.38;;;1.50;;
72354;SDS011;60314;55.040;73.076;2022-08-21T15:47:19;6.90;;;1.38;;
72354;SDS011;60314;55.040;73.076;2022-08-21T15:49:50;4.20;;;1.35;;
72354;SDS011;60314;55.040;73.076;2022-08-21T15:52:18;6.68;;;1.50;;
72354;SDS011;60314;55.040;73.076;2022-08-21T15:54:52;4.93;;;1.40;;
72354;SDS011;60314;55.040;73.076;2022-08-21T16:00:19;4.93;;;1.58;;
72354;SDS011;60314;55.040;73.076;2022-08-21T16:02:50;3.97;;;1.80;;
72354;SDS011;60314;55.040;73.076;2022-08-21T16:05:19;5.32;;;1.58;;
72354;SDS011;60314;55.040;73.076;2022-08-21T16:07:47;3.97;;;2.00;;
72354;SDS011;60314;55.040;73.076;2022-08-21T16:13:29;6.97;;;2.78;;
72354;SDS011;60314;55.040;73.076;2022-08-21T16:16:15;7.18;;;2.60;;
72354;SDS011;60314;55.040;73.076;2022-08-21T16:22:05;8.85;;;3.33;;
72354;SDS011;60314;55.040;73.076;2022-08-21T16:28:25;9.13;;;4.18;;
72354;SDS011;60314;55.040;73.076;2022-08-21T16:30:51;8.32;;;4.07;;
72354;SDS011;60314;55.040;73.076;2022-08-21T16:33:32;7.75;;;3.97;;
72354;SDS011;60314;55.040;73.076;2022-08-21T16:36:03;9.45;;;3.78;;
72354;SDS011;60314;55.040;73.076;2022-08-21T16:38:31;7.03;;;3.17;;
72354;SDS011;60314;55.040;73.076;2022-08-21T16:41:10;7.47;;;3.45;;
72354;SDS011;60314;55.040;73.076;2022-08-21T16:43:50;10.00;;;2.80;;
72354;SDS011;60314;55.040;73.076;2022-08-21T16:46:21;4.28;;;2.33;;
72354;SDS011;60314;55.040;73.076;2022-08-21T16:48:48;9.60;;;2.40;;
72354;SDS011;60314;55.040;73.076;2022-08-21T16:51:15;7.10;;;2.42;;
72354;SDS011;60314;55.040;73.076;2022-08-21T16:53:42;4.72;;;2.25;;